Time;durP1;ratioP1;P1;durP2;ratioP2;P2;SDS_P1;SDS_P2;PMS_P1;PMS_P2;Temp;Humidity;BMP_temperature;BMP_pressure;BME280_temperature;BME280_humidity;BME280_pressure;Samples;Min_cycle;Max_cycle;Signal;HPM_P1;HPM_P2
2022/12/24 00:01:47;;;;;;;72.30;30.10;;;;;;;4.81;100.00;99608.08;106927;1248;98189;-76
2022/12/24 00:04:13;;;;;;;64.20;27.80;;;;;;;4.80;100.00;99609.71;106843;1253;138820;-76
2022/12/24 00:06:38;;;;;;;70.00;28.40;;;;;;;4.79;100.00;99609.22;107032;1243;97626;-76
2022/12/24 00:09:03;;;;;;;62.20;27.40;;;;;;;4.78;100.00;99612.26;106943;1252;138941;-77
2022/12/24 00:11:28;;;;;;;72.50;29.90;;;;;;;4.77;100.00;99611.05;107034;1250;97684;-76
2022/12/24 00:13:54;;;;;;;70.40;29.50;;;;;;;4.77;100.00;99613.71;107029;1243;96688;-76
2022/12/24 00:16:19;;;;;;;73.90;30.40;;;;;;;4.77;100.00;99614.23;106837;1249;140904;-76
2022/12/24 00:18:44;;;;;;;63.80;28.00;;;;;;;4.79;100.00;99610.98;106875;1250;95904;-76
2022/12/24 00:21:10;;;;;;;65.10;27.40;;;;;;;4.79;100.00;99614.52;106961;1246;139152;-76
2022/12/24 00:23:35;;;;;;;53.60;23.00;;;;;;;4.77;100.00;99620.08;106880;1246;97626;-76
2022/12/24 00:26:00;;;;;;;52.00;25.00;;;;;;;4.74;100.00;99616.66;107078;1246;97743;-76
2022/12/24 00:28:26;;;;;;;55.20;25.20;;;;;;;4.72;100.00;99614.61;106851;1245;138555;-76
2022/12/24 00:30:51;;;;;;;57.20;24.10;;;;;;;4.71;100.00;99614.99;107030;1246;100006;-76
2022/12/24 00:33:16;;;;;;;55.60;24.50;;;;;;;4.71;100.00;99613.58;106900;1251;138445;-77
2022/12/24 00:35:42;;;;;;;58.70;25.00;;;;;;;4.70;100.00;99614.34;106951;1253;97621;-77
2022/12/24 00:38:08;;;;;;;52.00;24.00;;;;;;;4.68;100.00;99617.05;107063;1249;97741;-76
2022/12/24 00:40:33;;;;;;;53.10;25.00;;;;;;;4.69;100.00;99615.05;106841;1235;138405;-77
2022/12/24 00:42:58;;;;;;;55.30;25.50;;;;;;;4.72;100.00;99611.23;106906;1245;97733;-76
2022/12/24 00:45:26;;;;;;;59.00;25.80;;;;;;;4.75;100.00;99608.81;106961;1252;138483;-77
2022/12/24 00:47:51;;;;;;;58.70;26.30;;;;;;;4.75;100.00;99607.59;106919;1252;100262;-76
2022/12/24 00:50:17;;;;;;;51.50;23.10;;;;;;;4.77;100.00;99606.99;106981;1246;97681;-76
2022/12/24 00:52:42;;;;;;;53.90;23.70;;;;;;;4.76;100.00;99606.50;106910;1250;138193;-76
2022/12/24 00:55:08;;;;;;;49.60;22.30;;;;;;;4.74;100.00;99609.92;106886;1248;97823;-76
2022/12/24 00:57:33;;;;;;;50.10;22.70;;;;;;;4.74;100.00;99611.69;106913;1253;138324;-76
2022/12/24 00:59:58;;;;;;;44.90;19.40;;;;;;;4.74;100.00;99609.05;106925;1251;98671;-76
2022/12/24 01:02:24;;;;;;;52.30;23.20;;;;;;;4.73;100.00;99609.09;106847;1253;138622;-76
2022/12/24 01:07:35;;;;;;;50.90;21.80;;;;;;;4.71;100.00;99602.43;106953;1245;108835;-77
2022/12/24 01:10:00;;;;;;;46.10;19.90;;;;;;;4.70;100.00;99603.00;106851;1244;138567;-76
2022/12/24 01:12:26;;;;;;;43.20;18.90;;;;;;;4.69;100.00;99600.56;107038;1244;97951;-77
2022/12/24 01:14:51;;;;;;;35.30;17.40;;;;;;;4.67;100.00;99598.33;106719;1251;139183;-78
2022/12/24 01:17:16;;;;;;;44.60;19.60;;;;;;;4.62;100.00;99606.82;106966;1245;97616;-77
2022/12/24 01:19:41;;;;;;;44.50;18.40;;;;;;;4.61;100.00;99606.88;107026;1250;97658;-78
2022/12/24 01:22:08;;;;;;;47.20;20.70;;;;;;;4.60;100.00;99607.06;106724;1246;138388;-78
2022/12/24 01:24:33;;;;;;;47.30;20.20;;;;;;;4.61;100.00;99605.09;107126;1243;101242;-77
2022/12/24 01:26:58;;;;;;;39.00;18.80;;;;;;;4.61;100.00;99602.97;106857;1249;138899;-76
2022/12/24 01:29:24;;;;;;;52.40;21.80;;;;;;;4.60;100.00;99603.90;107005;1243;96918;-77
2022/12/24 01:31:49;;;;;;;44.10;19.90;;;;;;;4.59;100.00;99605.34;107035;1245;97686;-76
2022/12/24 01:34:21;;;;;;;48.90;20.40;;;;;;;4.57;100.00;99601.88;106857;1252;138824;-77
2022/12/24 01:36:46;;;;;;;48.20;19.40;;;;;;;4.59;100.00;99602.54;106838;1255;98104;-76
2022/12/24 01:39:11;;;;;;;50.80;18.80;;;;;;;4.59;100.00;99597.05;106765;1243;139310;-76
2022/12/24 01:44:27;;;;;;;47.10;19.10;;;;;;;4.58;100.00;99597.61;106865;1243;138491;-75
2022/12/24 01:47:15;;;;;;;50.10;22.30;;;;;;;4.55;100.00;99594.67;106907;1247;97741;-76
2022/12/24 01:49:46;;;;;;;47.50;20.50;;;;;;;4.53;100.00;99599.01;106950;1246;97442;-76
2022/12/24 01:52:19;;;;;;;44.70;19.00;;;;;;;4.52;100.00;99598.17;106875;1249;138431;-76
2022/12/24 01:55:04;;;;;;;49.00;19.90;;;;;;;4.51;100.00;99597.31;107070;1237;98470;-76
2022/12/24 01:57:45;;;;;;;49.60;20.20;;;;;;;4.52;100.00;99598.15;106909;1249;138335;-76
2022/12/24 02:00:12;;;;;;;46.90;19.40;;;;;;;4.54;100.00;99598.61;106985;1245;97808;-76
2022/12/24 02:02:39;;;;;;;42.40;17.10;;;;;;;4.56;100.00;99595.53;106836;1246;138478;-77
2022/12/24 02:05:08;;;;;;;38.80;18.10;;;;;;;4.56;100.00;99594.11;107024;1237;97613;-77
2022/12/24 02:07:33;;;;;;;41.50;17.80;;;;;;;4.58;100.00;99600.80;106916;1247;99405;-76
2022/12/24 02:10:00;;;;;;;37.00;16.30;;;;;;;4.60;100.00;99600.37;106940;1238;139391;-76
2022/12/24 02:12:31;;;;;;;37.60;16.70;;;;;;;4.62;100.00;99595.70;107085;1244;97615;-76
2022/12/24 02:14:57;;;;;;;;;;;;;;;4.62;100.00;99596.73;106991;1250;138740;-76
2022/12/24 02:17:54;;;;;;;32.00;15.00;;;;;;;4.61;100.00;99594.65;107005;1260;97597;-77
2022/12/24 02:20:32;;;;;;;32.80;14.80;;;;;;;4.65;100.00;99596.47;106990;1250;107307;-77
2022/12/24 02:23:31;;;;;;;29.90;14.60;;;;;;;4.63;100.00;99593.17;107022;1251;97627;-76
2022/12/24 02:26:06;;;;;;;26.10;12.00;;;;;;;4.61;100.00;99593.96;107007;1253;97627;-77
2022/12/24 02:29:05;;;;;;;23.20;11.70;;;;;;;4.61;100.00;99591.12;106871;1250;138444;-77
2022/12/24 02:31:36;;;;;;;27.90;13.00;;;;;;;4.60;100.00;99586.39;107030;1240;98973;-77
2022/12/24 02:34:13;;;;;;;;;;;;;;;4.59;100.00;99591.36;106968;1236;138281;-77
2022/12/24 02:36:45;;;;;;;25.20;12.60;;;;;;;4.59;100.00;99591.36;107013;1243;97618;-77
2022/12/24 02:39:19;;;;;;;27.10;11.60;;;;;;;4.62;100.00;99594.79;106925;1237;138688;-77
2022/12/24 02:42:07;;;;;;;23.70;12.10;;;;;;;4.61;100.00;99592.70;107001;1238;111173;-76
2022/12/24 02:44:38;;;;;;;26.90;12.70;;;;;;;4.60;100.00;99600.52;106845;1257;139085;-75
2022/12/24 02:47:06;;;;;;;27.90;13.30;;;;;;;4.62;100.00;99601.36;107059;1234;107880;-76
2022/12/24 02:49:31;;;;;;;22.70;11.60;;;;;;;4.63;100.00;99605.73;107005;1243;97699;-76
2022/12/24 02:51:56;;;;;;;26.20;12.40;;;;;;;4.63;100.00;99608.92;106847;1243;139272;-76
2022/12/24 02:54:22;;;;;;;27.50;12.30;;;;;;;4.64;100.00;99609.25;107087;1253;97716;-76
2022/12/24 02:57:02;;;;;;;27.50;12.40;;;;;;;4.65;100.00;99606.90;106819;1251;138954;-76
2022/12/24 02:59:40;;;;;;;27.90;13.40;;;;;;;4.66;100.00;99604.02;107090;1253;97731;-76
2022/12/24 03:02:24;;;;;;;31.10;13.00;;;;;;;4.67;100.00;99605.08;107007;1244;99039;-77
2022/12/24 03:05:24;;;;;;;29.60;12.40;;;;;;;4.64;100.00;99609.59;106871;1243;138222;-77
2022/12/24 03:08:01;;;;;;;28.30;12.50;;;;;;;4.61;100.00;99614.66;106952;1248;97834;-76
2022/12/24 03:10:45;;;;;;;24.00;11.90;;;;;;;4.60;100.00;99620.86;106783;1252;138397;-76
2022/12/24 03:13:16;;;;;;;26.90;12.70;;;;;;;4.61;100.00;99623.15;106985;1252;97623;-76
2022/12/24 03:15:42;;;;;;;;;;;;;;;4.60;100.00;99626.91;106889;1248;138427;-76
2022/12/24 03:18:10;;;;;;;27.10;11.90;;;;;;;4.58;100.00;99626.80;106938;1249;97730;-76
2022/12/24 03:20:51;;;;;;;28.30;13.00;;;;;;;4.58;100.00;99626.62;106900;1241;138538;-76
2022/12/24 03:23:17;;;;;;;31.30;14.30;;;;;;;4.54;100.00;99622.48;106952;1248;107013;-76
2022/12/24 03:25:44;;;;;;;31.80;13.30;;;;;;;4.53;100.00;99625.20;106887;1251;99230;-76
2022/12/24 03:28:14;;;;;;;31.90;13.70;;;;;;;4.52;100.00;99623.64;106744;1248;138417;-77
2022/12/24 03:30:42;;;;;;;31.70;14.10;;;;;;;4.52;100.00;99623.98;106928;1245;112339;-75
2022/12/24 03:33:08;;;;;;;31.70;14.70;;;;;;;4.53;100.00;99623.43;106817;1249;138965;-77
2022/12/24 03:35:33;;;;;;;33.00;15.30;;;;;;;4.53;100.00;99621.29;107018;1245;96773;-76
2022/12/24 03:37:58;;;;;;;36.30;15.00;;;;;;;4.53;100.00;99627.48;106976;1243;97733;-76
2022/12/24 03:40:23;;;;;;;32.80;15.10;;;;;;;4.54;100.00;99624.98;106810;1241;138534;-76
2022/12/24 03:42:49;;;;;;;38.50;16.10;;;;;;;4.53;100.00;99627.48;107010;1243;97738;-76
2022/12/24 03:45:14;;;;;;;41.50;17.10;;;;;;;4.51;100.00;99628.44;106811;1249;139269;-77
2022/12/24 03:47:40;;;;;;;38.20;16.50;;;;;;;4.51;100.00;99626.67;106974;1245;98364;-76
2022/12/24 03:50:06;;;;;;;42.10;16.50;;;;;;;4.50;100.00;99629.34;106923;1246;98101;-76
2022/12/24 03:52:31;;;;;;;36.50;16.10;;;;;;;4.50;100.00;99636.96;106792;1246;138679;-76
2022/12/24 03:54:56;;;;;;;40.00;16.60;;;;;;;4.50;100.00;99641.92;106951;1250;97678;-77
2022/12/24 03:57:22;;;;;;;42.80;17.00;;;;;;;4.46;100.00;99643.46;106907;1234;138980;-76
2022/12/24 03:59:47;;;;;;;45.80;18.10;;;;;;;4.44;100.00;99647.27;106987;1250;97737;-76
2022/12/24 04:02:12;;;;;;;42.60;18.10;;;;;;;4.42;100.00;99650.69;106956;1246;98131;-76
2022/12/24 04:04:37;;;;;;;42.70;16.90;;;;;;;4.42;100.00;99655.66;106880;1241;138427;-76
2022/12/24 04:07:04;;;;;;;50.80;19.40;;;;;;;4.40;100.00;99654.99;106970;1242;97687;-76
2022/12/24 04:09:29;;;;;;;44.90;17.70;;;;;;;4.39;100.00;99660.52;106774;1242;138447;-76
2022/12/24 04:11:54;;;;;;;46.00;16.60;;;;;;;4.39;100.00;99659.27;106908;1251;97606;-76
2022/12/24 04:14:20;;;;;;;40.70;16.40;;;;;;;4.38;100.00;99654.02;107004;1248;97748;-76
2022/12/24 04:16:45;;;;;;;42.10;16.70;;;;;;;4.37;100.00;99659.90;106816;1242;138305;-76
2022/12/24 04:19:10;;;;;;;43.20;19.20;;;;;;;4.36;100.00;99661.67;106974;1247;97737;-76
2022/12/24 04:21:35;;;;;;;41.50;17.20;;;;;;;4.35;100.00;99666.49;106823;1253;138352;-76
2022/12/24 04:24:01;;;;;;;44.60;17.10;;;;;;;4.33;100.00;99669.58;106966;1250;97643;-76
2022/12/24 04:26:26;;;;;;;45.00;17.40;;;;;;;4.32;100.00;99676.15;106962;1249;138503;-75
2022/12/24 04:28:52;;;;;;;39.40;16.60;;;;;;;4.31;100.00;99672.64;106960;1250;97654;-76
2022/12/24 04:31:17;;;;;;;43.30;17.10;;;;;;;4.32;100.00;99671.73;106941;1250;98206;-76
2022/12/24 04:33:43;;;;;;;37.10;15.70;;;;;;;4.33;100.00;99672.41;106843;1246;138246;-76
2022/12/24 04:36:11;;;;;;;37.70;16.50;;;;;;;4.32;100.00;99670.67;106839;1250;97757;-76
2022/12/24 04:38:37;;;;;;;42.90;17.60;;;;;;;4.30;100.00;99675.87;106805;1250;138509;-76
2022/12/24 04:41:16;;;;;;;44.20;17.00;;;;;;;4.31;100.00;99676.91;107036;1248;97586;-76
2022/12/24 04:43:41;;;;;;;43.80;17.30;;;;;;;4.31;100.00;99678.48;106923;1249;102045;-76
2022/12/24 04:46:10;;;;;;;41.40;15.10;;;;;;;4.30;100.00;99682.77;106855;1249;138519;-76
2022/12/24 04:48:36;;;;;;;45.70;17.20;;;;;;;4.29;100.00;99684.21;106884;1254;97725;-75
2022/12/24 04:51:04;;;;;;;46.30;18.40;;;;;;;4.28;100.00;99685.48;106863;1253;138712;-75
2022/12/24 04:53:30;;;;;;;46.20;18.60;;;;;;;4.29;100.00;99679.98;106886;1249;97758;-76
2022/12/24 04:55:56;;;;;;;40.80;17.50;;;;;;;4.27;100.00;99680.92;106939;1244;98986;-75
2022/12/24 04:58:22;;;;;;;51.30;19.10;;;;;;;4.26;100.00;99686.43;106868;1236;138666;-75
2022/12/24 05:00:47;;;;;;;41.30;15.40;;;;;;;4.26;100.00;99685.88;107040;1244;99034;-76
2022/12/24 05:03:13;;;;;;;49.70;19.10;;;;;;;4.27;100.00;99686.05;106847;1251;138558;-77
2022/12/24 05:05:38;;;;;;;45.20;17.90;;;;;;;4.27;100.00;99692.05;106929;1252;96524;-76
2022/12/24 05:08:03;;;;;;;49.80;19.30;;;;;;;4.26;100.00;99692.78;106966;1251;97728;-77
2022/12/24 05:10:29;;;;;;;63.10;20.60;;;;;;;4.25;100.00;99696.72;106920;1249;138585;-77
2022/12/24 05:12:54;;;;;;;52.00;19.10;;;;;;;4.23;100.00;99701.55;106865;1252;97710;-76
2022/12/24 05:15:20;;;;;;;47.30;19.80;;;;;;;4.21;100.00;99710.61;106793;1250;138900;-77
2022/12/24 05:17:45;;;;;;;51.40;20.30;;;;;;;4.21;100.00;99706.92;106982;1249;97734;-77
2022/12/24 05:20:10;;;;;;;53.20;19.80;;;;;;;4.20;100.00;99708.54;106943;1246;97724;-76
2022/12/24 05:28:04;;;;;;;53.80;20.00;;;;;;;4.15;100.00;99714.53;106836;1254;139155;-76
2022/12/24 05:30:29;;;;;;;52.80;19.00;;;;;;;4.16;100.00;99715.91;106905;1248;97825;-77
2022/12/24 05:32:54;;;;;;;48.20;18.80;;;;;;;4.17;100.00;99719.42;106921;1244;139100;-76
2022/12/24 05:35:20;;;;;;;45.00;18.10;;;;;;;4.17;100.00;99724.19;106940;1248;97751;-76
2022/12/24 05:37:45;;;;;;;43.10;16.90;;;;;;;4.16;100.00;99728.11;107019;1243;97620;-76
2022/12/24 05:40:10;;;;;;;45.80;17.60;;;;;;;4.15;100.00;99732.56;106835;1250;138732;-77
2022/12/24 05:42:36;;;;;;;45.90;17.30;;;;;;;4.13;100.00;99738.48;106940;1242;97726;-77
2022/12/24 05:45:01;;;;;;;39.50;14.80;;;;;;;4.12;100.00;99739.93;106845;1251;138760;-76
2022/12/24 05:47:26;;;;;;;45.50;17.50;;;;;;;4.08;100.00;99740.92;106790;1250;98890;-75
2022/12/24 05:49:52;;;;;;;41.20;16.50;;;;;;;4.07;100.00;99743.27;107003;1251;97866;-76
2022/12/24 05:52:17;;;;;;;37.90;15.50;;;;;;;4.06;100.00;99746.84;106768;1245;139369;-75
2022/12/24 05:54:42;;;;;;;40.90;15.30;;;;;;;4.08;100.00;99752.44;107014;1241;97664;-76
2022/12/24 05:57:08;;;;;;;34.00;13.60;;;;;;;4.08;100.00;99755.77;106814;1251;139065;-76
2022/12/24 05:59:33;;;;;;;35.30;14.90;;;;;;;4.07;100.00;99757.95;106886;1247;97626;-76
2022/12/24 06:01:58;;;;;;;36.80;15.50;;;;;;;4.06;100.00;99764.16;106980;1242;98974;-76
2022/12/24 06:04:24;;;;;;;39.40;15.40;;;;;;;4.07;100.00;99769.98;106758;1249;138568;-76
2022/12/24 06:06:49;;;;;;;46.80;15.50;;;;;;;4.08;100.00;99772.05;106990;1255;97746;-76
2022/12/24 06:09:15;;;;;;;42.90;16.80;;;;;;;4.08;100.00;99780.20;106781;1250;138619;-76
2022/12/24 06:11:41;;;;;;;37.30;15.00;;;;;;;4.07;100.00;99774.75;106944;1251;97717;-75
2022/12/24 06:14:07;;;;;;;43.30;18.40;;;;;;;4.06;100.00;99778.84;107149;1242;97704;-76
2022/12/24 06:16:32;;;;;;;38.50;15.20;;;;;;;4.02;100.00;99777.38;106958;1249;138383;-76
2022/12/24 06:18:57;;;;;;;39.50;15.60;;;;;;;4.00;100.00;99779.20;106871;1254;97747;-76
2022/12/24 06:21:23;;;;;;;43.20;17.90;;;;;;;3.99;100.00;99784.17;106864;1244;138926;-76
2022/12/24 06:23:48;;;;;;;35.00;16.20;;;;;;;3.96;100.00;99779.83;106962;1250;97730;-76
2022/12/24 06:26:20;;;;;;;42.20;17.70;;;;;;;3.96;100.00;99786.22;106997;1243;97679;-76
2022/12/24 06:28:47;;;;;;;47.90;15.60;;;;;;;3.95;100.00;99790.64;106696;1253;138399;-77
2022/12/24 06:31:15;;;;;;;40.60;16.00;;;;;;;3.94;100.00;99792.46;106938;1249;97385;-76
2022/12/24 06:33:40;;;;;;;42.40;17.50;;;;;;;3.91;100.00;99793.07;106850;1251;138520;-77
2022/12/24 06:36:07;;;;;;;41.40;16.00;;;;;;;3.90;100.00;99796.99;106861;1243;97766;-76
2022/12/24 06:38:32;;;;;;;47.90;17.80;;;;;;;3.86;100.00;99794.83;107013;1250;138646;-75
2022/12/24 06:40:58;;;;;;;42.30;18.00;;;;;;;3.82;100.00;99803.94;106877;1251;97795;-76
2022/12/24 06:43:23;;;;;;;44.50;20.10;;;;;;;3.82;100.00;99806.59;106727;1246;96991;-76
2022/12/24 06:45:48;;;;;;;44.60;18.50;;;;;;;3.82;100.00;99811.20;106793;1249;138894;-76
2022/12/24 06:48:15;;;;;;;41.60;17.60;;;;;;;3.82;100.00;99819.68;106942;1251;96480;-77
2022/12/24 06:50:41;;;;;;;48.80;17.90;;;;;;;3.81;100.00;99823.56;106781;1251;138539;-76
2022/12/24 06:53:07;;;;;;;44.40;17.80;;;;;;;3.82;100.00;99826.55;106977;1242;98110;-76
2022/12/24 06:55:32;;;;;;;36.70;15.90;;;;;;;3.82;100.00;99832.74;106843;1251;106429;-76
2022/12/24 06:57:57;;;;;;;45.30;17.00;;;;;;;3.81;100.00;99834.17;106747;1251;139157;-76
2022/12/24 07:00:23;;;;;;;42.30;16.40;;;;;;;3.81;100.00;99840.02;106838;1254;97725;-77
2022/12/24 07:02:49;;;;;;;40.00;17.50;;;;;;;3.81;100.00;99843.73;106790;1250;138569;-76
2022/12/24 07:05:15;;;;;;;46.50;17.40;;;;;;;3.79;100.00;99850.48;106978;1253;97645;-77
2022/12/24 07:07:42;;;;;;;43.80;17.60;;;;;;;3.78;100.00;99861.66;107074;1249;97740;-76
2022/12/24 07:10:11;;;;;;;36.90;15.50;;;;;;;3.78;100.00;99867.83;106700;1247;139256;-76
2022/12/24 07:12:36;;;;;;;44.00;17.90;;;;;;;3.80;100.00;99869.37;106864;1252;99328;-76
2022/12/24 07:15:02;;;;;;;38.60;17.90;;;;;;;3.82;100.00;99870.39;106775;1250;138908;-77
2022/12/24 07:17:27;;;;;;;45.00;18.30;;;;;;;3.80;100.00;99870.08;106943;1244;97704;-76
2022/12/24 07:19:52;;;;;;;39.90;17.00;;;;;;;3.79;100.00;99874.36;106785;1246;97696;-76
2022/12/24 07:22:18;;;;;;;39.40;15.60;;;;;;;3.79;100.00;99880.55;106849;1243;138336;-78
2022/12/24 07:24:43;;;;;;;36.50;14.70;;;;;;;3.79;100.00;99890.25;106859;1247;98731;-76
2022/12/24 07:27:08;;;;;;;42.10;18.20;;;;;;;3.79;100.00;99894.50;106779;1251;139451;-77
2022/12/24 07:29:34;;;;;;;42.10;16.60;;;;;;;3.76;100.00;99900.41;106962;1242;97754;-77
2022/12/24 07:31:59;;;;;;;36.60;16.60;;;;;;;3.76;100.00;99904.84;106924;1244;96488;-77
2022/12/24 07:34:25;;;;;;;42.60;15.70;;;;;;;3.79;100.00;99908.30;106803;1251;139128;-77
2022/12/24 07:36:50;;;;;;;41.10;15.40;;;;;;;3.80;100.00;99910.55;106837;1243;97073;-78
2022/12/24 07:39:15;;;;;;;40.90;17.00;;;;;;;3.80;100.00;99912.86;106677;1240;138502;-77
2022/12/24 07:41:42;;;;;;;47.20;17.20;;;;;;;3.80;100.00;99912.15;106876;1252;97615;-77
2022/12/24 07:44:10;;;;;;;46.70;17.50;;;;;;;3.78;100.00;99913.25;106911;1243;97711;-77
2022/12/24 07:46:36;;;;;;;49.50;18.60;;;;;;;3.76;100.00;99918.25;106821;1250;138353;-77
2022/12/24 07:49:01;;;;;;;44.20;18.10;;;;;;;3.76;100.00;99918.64;106860;1253;98189;-77
2022/12/24 07:51:26;;;;;;;46.80;17.60;;;;;;;3.77;100.00;99924.42;106801;1249;138522;-77
2022/12/24 07:53:51;;;;;;;45.20;18.40;;;;;;;3.78;100.00;99924.39;106884;1249;97727;-78
2022/12/24 07:56:17;;;;;;;44.40;17.40;;;;;;;3.81;100.00;99931.39;106927;1249;97841;-75
2022/12/24 07:58:42;;;;;;;48.50;18.40;;;;;;;3.82;100.00;99934.89;106767;1243;138180;-76
2022/12/24 08:01:08;;;;;;;43.70;18.30;;;;;;;3.82;100.00;99939.30;106788;1254;97727;-75
2022/12/24 08:03:34;;;;;;;45.40;17.60;;;;;;;3.84;100.00;99946.84;106840;1254;138471;-76
2022/12/24 08:05:59;;;;;;;46.60;18.00;;;;;;;3.85;100.00;99948.60;106940;1235;97657;-76
2022/12/24 08:08:25;;;;;;;41.60;17.90;;;;;;;3.86;100.00;99955.64;106864;1245;97831;-76
2022/12/24 08:10:51;;;;;;;40.20;17.00;;;;;;;3.87;100.00;99960.90;106930;1251;97664;-76
2022/12/24 08:13:16;;;;;;;42.20;17.70;;;;;;;3.87;100.00;99964.44;106967;1249;98103;-78
2022/12/24 08:15:43;;;;;;;35.90;15.60;;;;;;;3.84;100.00;99970.15;106778;1235;138321;-77
2022/12/24 08:18:09;;;;;;;44.80;18.70;;;;;;;3.83;100.00;99971.60;107035;1240;97704;-78
2022/12/24 08:20:37;;;;;;;40.60;16.80;;;;;;;3.88;100.00;99973.60;106756;1246;138610;-77
2022/12/24 08:23:02;;;;;;;44.60;16.70;;;;;;;3.87;100.00;99977.33;106744;1247;109211;-75
2022/12/24 08:25:27;;;;;;;39.10;16.40;;;;;;;3.87;100.00;99978.92;106840;1253;98910;-77
2022/12/24 08:27:53;;;;;;;41.80;17.40;;;;;;;3.88;100.00;99980.48;106803;1243;138534;-77
2022/12/24 08:30:18;;;;;;;44.60;17.70;;;;;;;3.89;100.00;99988.42;106810;1250;97807;-77
2022/12/24 08:32:44;;;;;;;39.80;17.40;;;;;;;3.91;100.00;99984.13;106860;1252;139133;-77
2022/12/24 08:35:09;;;;;;;35.20;16.90;;;;;;;3.92;100.00;99988.52;106850;1251;97752;-77
2022/12/24 08:37:34;;;;;;;39.80;18.20;;;;;;;3.91;100.00;99989.77;106919;1242;97580;-77
2022/12/24 08:39:59;;;;;;;39.50;18.10;;;;;;;3.91;100.00;99999.30;106875;1250;138522;-77
2022/12/24 08:42:25;;;;;;;43.70;18.30;;;;;;;4.00;100.00;100002.45;106831;1249;98841;-77
2022/12/24 08:44:50;;;;;;;37.80;16.00;;;;;;;4.10;100.00;100011.54;106835;1243;138679;-77
2022/12/24 08:47:15;;;;;;;43.30;17.30;;;;;;;4.07;100.00;100015.50;106931;1235;97757;-77
2022/12/24 08:49:40;;;;;;;38.90;16.50;;;;;;;4.09;100.00;100020.57;107009;1237;97746;-77
2022/12/24 08:52:06;;;;;;;40.30;15.70;;;;;;;4.06;100.00;100024.20;106686;1243;138550;-77
2022/12/24 08:54:31;;;;;;;40.50;17.20;;;;;;;4.02;100.00;100027.84;106851;1234;97718;-77
2022/12/24 08:56:56;;;;;;;38.40;16.60;;;;;;;4.03;100.00;100029.94;106886;1242;138914;-78
2022/12/24 08:59:22;;;;;;;40.60;17.30;;;;;;;4.04;100.00;100030.61;106931;1248;97607;-77
2022/12/24 09:01:47;;;;;;;37.10;17.60;;;;;;;4.06;100.00;100032.14;106956;1251;97406;-77
2022/12/24 09:04:12;;;;;;;49.20;18.10;;;;;;;4.06;100.00;100037.83;106852;1243;138567;-77
2022/12/24 09:06:38;;;;;;;43.70;18.00;;;;;;;4.07;100.00;100037.60;106775;1249;97640;-76
2022/12/24 09:09:04;;;;;;;40.80;18.70;;;;;;;4.11;100.00;100038.03;106875;1248;138728;-77
2022/12/24 09:11:29;;;;;;;39.80;17.90;;;;;;;4.15;100.00;100036.69;107252;1251;97663;-77
2022/12/24 09:13:55;;;;;;;38.40;16.70;;;;;;;4.15;100.00;100031.75;107408;1243;96640;-76
2022/12/24 09:16:20;;;;;;;44.50;17.90;;;;;;;4.12;100.00;100034.99;106903;1246;138530;-77
2022/12/24 09:18:46;;;;;;;40.60;18.10;;;;;;;4.13;100.00;100037.63;106757;1251;97624;-77
2022/12/24 09:21:14;;;;;;;42.00;17.30;;;;;;;4.14;100.00;100044.50;106929;1250;138927;-78
2022/12/24 09:23:41;;;;;;;46.40;17.60;;;;;;;4.12;100.00;100048.09;106765;1248;109946;-76
2022/12/24 09:26:09;;;;;;;43.80;17.90;;;;;;;4.13;100.00;100046.30;106957;1251;97660;-77
2022/12/24 09:28:35;;;;;;;40.10;17.50;;;;;;;4.17;100.00;100048.67;106702;1249;138760;-77
2022/12/24 09:31:02;;;;;;;48.10;19.00;;;;;;;4.21;100.00;100048.19;106724;1252;96560;-76
2022/12/24 09:33:31;;;;;;;52.00;20.90;;;;;;;4.26;100.00;100053.02;106841;1249;138628;-77
2022/12/24 09:35:57;;;;;;;49.40;21.10;;;;;;;4.31;100.00;100059.61;107026;1251;96918;-76
2022/12/24 09:38:23;;;;;;;102.00;30.50;;;;;;;4.34;100.00;100070.33;106914;1246;97715;-76
2022/12/24 09:40:49;;;;;;;47.30;19.80;;;;;;;4.35;100.00;100076.13;106820;1250;138611;-76
2022/12/24 09:43:19;;;;;;;44.80;18.40;;;;;;;4.35;100.00;100079.13;106863;1254;97601;-77
2022/12/24 09:46:03;;;;;;;49.30;19.30;;;;;;;4.30;100.00;100079.09;106822;1247;138600;-78
2022/12/24 09:48:30;;;;;;;45.30;19.10;;;;;;;4.27;100.00;100082.70;106908;1249;98803;-78
2022/12/24 09:51:05;;;;;;;40.60;17.70;;;;;;;4.28;100.00;100082.87;106922;1251;139094;-78
2022/12/24 09:53:42;;;;;;;43.00;17.50;;;;;;;4.28;100.00;100081.08;106938;1251;97223;-78
2022/12/24 09:56:16;;;;;;;41.80;18.30;;;;;;;4.28;100.00;100087.27;106963;1251;97534;-77
2022/12/24 09:58:49;;;;;;;47.60;18.50;;;;;;;4.32;100.00;100090.17;106828;1235;139175;-79
2022/12/24 10:01:17;;;;;;;44.90;18.10;;;;;;;4.38;100.00;100088.24;106988;1244;98705;-78
2022/12/24 10:03:43;;;;;;;51.10;21.10;;;;;;;4.43;100.00;100091.11;106851;1245;138606;-77
2022/12/24 10:06:14;;;;;;;48.00;18.70;;;;;;;4.45;100.00;100098.13;106878;1250;98040;-78
2022/12/24 10:08:52;;;;;;;50.70;25.80;;;;;;;4.43;100.00;100098.55;106855;1244;138661;-78
2022/12/24 10:11:42;;;;;;;56.90;24.60;;;;;;;4.47;100.00;100102.15;106884;1252;111138;-77
2022/12/24 10:14:14;;;;;;;43.80;20.80;;;;;;;4.55;100.00;100111.30;106844;1254;100191;-77
2022/12/24 10:16:45;;;;;;;47.80;20.10;;;;;;;4.54;100.00;100113.81;106891;1251;139806;-76
2022/12/24 10:19:29;;;;;;;;;;;;;;;4.58;100.00;100122.89;106983;1251;97716;-76
2022/12/24 10:22:17;;;;;;;41.70;19.20;;;;;;;4.67;100.00;100121.08;106920;1242;125090;-76
2022/12/24 10:25:01;;;;;;;55.80;22.80;;;;;;;4.72;100.00;100123.74;106917;1245;112396;-75
2022/12/24 10:27:33;;;;;;;49.80;20.60;;;;;;;4.73;100.00;100122.65;106827;1247;139627;-75
2022/12/24 10:30:03;;;;;;;50.60;20.40;;;;;;;4.74;100.00;100129.71;106958;1238;108081;-75
2022/12/24 10:32:33;;;;;;;45.90;19.00;;;;;;;4.76;100.00;100132.50;106805;1247;139377;-76
2022/12/24 10:35:14;;;;;;;45.50;19.50;;;;;;;4.76;100.00;100133.19;106920;1251;98233;-75
2022/12/24 10:37:41;;;;;;;48.00;19.30;;;;;;;4.72;100.00;100133.66;106968;1244;112091;-76
2022/12/24 10:40:27;;;;;;;62.20;25.00;;;;;;;4.71;100.00;100135.81;107033;1243;138683;-77
2022/12/24 10:42:52;;;;;;;70.00;27.10;;;;;;;4.76;100.00;100143.64;106948;1252;107520;-76
2022/12/24 10:45:20;;;;;;;57.00;26.20;;;;;;;4.77;100.00;100147.32;106809;1244;138680;-75
2022/12/24 10:47:50;;;;;;;60.40;27.90;;;;;;;4.78;100.00;100151.19;107003;1259;97727;-76
2022/12/24 10:50:45;;;;;;;48.60;23.70;;;;;;;4.82;100.00;100150.55;106851;1252;111128;-75
2022/12/24 10:53:22;;;;;;;57.30;24.20;;;;;;;4.84;100.00;100153.50;107036;1236;99587;-75
2022/12/24 10:55:48;;;;;;;47.30;22.00;;;;;;;4.79;100.00;100155.58;106805;1244;110338;-76
2022/12/24 10:58:18;;;;;;;52.60;23.20;;;;;;;4.75;100.00;100158.70;106878;1235;139069;-77
2022/12/24 11:00:52;;;;;;;50.10;24.50;;;;;;;4.80;100.00;100162.80;106835;1243;97722;-77
2022/12/24 11:03:17;;;;;;;55.60;22.90;;;;;;;4.92;100.00;100158.96;106848;1246;139204;-75
2022/12/24 11:05:43;;;;;;;50.50;20.90;;;;;;;4.89;100.00;100161.86;107026;1244;97623;-76
2022/12/24 11:08:11;;;;;;;50.20;21.70;;;;;;;4.81;100.00;100165.27;106948;1244;97750;-76
2022/12/24 11:10:41;;;;;;;46.50;20.50;;;;;;;4.75;100.00;100163.83;106859;1246;138540;-76
2022/12/24 11:13:41;;;;;;;53.10;21.80;;;;;;;4.74;100.00;100169.52;107002;1242;111671;-75
2022/12/24 11:16:24;;;;;;;54.70;23.50;;;;;;;4.77;100.00;100170.52;106904;1243;138713;-76
2022/12/24 11:18:52;;;;;;;47.00;20.60;;;;;;;4.80;100.00;100172.92;106933;1252;108606;-76
2022/12/24 11:21:33;;;;;;;46.90;22.00;;;;;;;4.81;100.00;100173.23;106901;1236;138811;-75